Time;durP1;ratioP1;P1;durP2;ratioP2;P2;SDS_P1;SDS_P2;PMS_P1;PMS_P2;Temp;Humidity;BMP_temperature;BMP_pressure;BME280_temperature;BME280_humidity;BME280_pressure;Samples;Min_cycle;Max_cycle;Signal;HPM_P1;HPM_P2
2022/04/14 00:00:05;;;;;;;16.83;10.13;;;;;;;16.91;60.72;101381.66;687839;28;1227;-77
2022/04/14 00:01:01;;;;;;;14.80;9.65;;;;;;;16.98;60.76;101391.41;686156;28;1191;-77
2022/04/14 00:01:22;;;;;;;13.38;8.60;;;;;;;16.92;60.74;101378.19;689608;28;1462;-77
2022/04/14 00:01:43;;;;;;;14.80;8.73;;;;;;;16.93;60.90;101373.78;687564;28;1757;-77
2022/04/14 00:02:04;;;;;;;16.10;9.10;;;;;;;16.91;60.84;101371.13;690711;28;1186;-76
2022/04/14 00:02:24;;;;;;;16.70;9.48;;;;;;;16.92;60.98;101375.56;688438;28;1170;-77
2022/04/14 00:02:45;;;;;;;14.03;8.53;;;;;;;16.91;60.90;101367.63;691786;28;1385;-77
2022/04/14 00:03:05;;;;;;;12.13;7.80;;;;;;;16.91;60.84;101376.41;695942;28;1026;-77
2022/04/14 00:03:26;;;;;;;8.67;7.00;;;;;;;16.92;60.84;101383.47;695872;28;1207;-77
2022/04/14 00:03:47;;;;;;;9.90;7.17;;;;;;;16.88;60.94;101371.09;693168;28;1543;-77
2022/04/14 00:04:07;;;;;;;9.90;7.03;;;;;;;16.89;60.99;101379.91;687552;28;1403;-77
2022/04/14 00:04:28;;;;;;;9.73;6.90;;;;;;;16.87;60.85;101374.59;690255;28;1485;-77
2022/04/14 00:04:48;;;;;;;9.03;6.77;;;;;;;16.88;60.98;101378.13;687899;28;807;-77
2022/04/14 00:05:09;;;;;;;10.32;7.28;;;;;;;16.88;60.94;101383.38;691003;28;1474;-77
2022/04/14 00:05:29;;;;;;;12.23;8.20;;;;;;;16.82;60.99;101371.03;691746;28;1383;-77
2022/04/14 00:05:50;;;;;;;13.57;8.98;;;;;;;16.83;60.98;101373.69;689025;28;799;-76
2022/04/14 00:06:10;;;;;;;13.80;9.00;;;;;;;16.82;61.04;101379.84;687731;28;1019;-77
2022/04/14 00:06:31;;;;;;;18.00;9.20;;;;;;;16.85;60.83;101381.63;687459;28;1377;-76
2022/04/14 00:06:52;;;;;;;18.70;9.07;;;;;;;16.81;60.95;101382.44;693219;28;1257;-77
2022/04/14 00:07:13;;;;;;;18.38;8.98;;;;;;;16.81;61.08;101383.34;687710;28;1157;-76
2022/04/14 00:07:33;;;;;;;13.67;8.40;;;;;;;16.79;60.92;101378.91;685625;28;1282;-77
2022/04/14 00:07:54;;;;;;;13.05;7.50;;;;;;;16.79;60.83;101378.91;687108;28;1364;-77
2022/04/14 00:08:25;;;;;;;10.68;6.68;;;;;;;16.71;61.05;101366.53;687931;28;740;-77
2022/04/14 00:08:46;;;;;;;8.13;5.90;;;;;;;16.72;61.07;101373.56;690308;28;1524;-77
2022/04/14 00:09:06;;;;;;;9.00;6.00;;;;;;;16.71;61.12;101387.59;693268;28;1032;-76
2022/04/14 00:09:28;;;;;;;8.90;6.13;;;;;;;16.70;61.12;101377.03;691944;28;1157;-76
2022/04/14 00:09:49;;;;;;;8.93;6.03;;;;;;;16.72;61.26;101383.22;694063;28;776;-76
2022/04/14 00:10:11;;;;;;;8.70;6.35;;;;;;;16.66;61.27;101381.38;693236;28;1258;-76
2022/04/14 00:10:31;;;;;;;10.30;6.90;;;;;;;16.67;61.68;101385.78;690212;28;1166;-77
2022/04/14 00:10:52;;;;;;;11.57;7.40;;;;;;;16.62;61.29;101381.31;687703;28;1599;-76
2022/04/14 00:11:13;;;;;;;11.18;7.05;;;;;;;16.65;61.50;101381.38;690511;28;1073;-76
2022/04/14 00:11:33;;;;;;;10.48;6.75;;;;;;;16.64;61.49;101382.22;689813;28;1472;-76
2022/04/14 00:11:55;;;;;;;11.10;6.80;;;;;;;16.63;61.59;101384.00;690635;28;1120;-76
2022/04/14 00:12:16;;;;;;;11.52;7.00;;;;;;;16.72;61.29;101381.47;694034;28;1217;-77
2022/04/14 00:12:37;;;;;;;11.20;6.97;;;;;;;16.87;60.80;101379.88;692621;28;1099;-77
2022/04/14 00:12:58;;;;;;;10.38;6.88;;;;;;;16.91;60.39;101373.75;687921;28;858;-76
2022/04/14 00:13:19;;;;;;;10.67;6.90;;;;;;;17.03;60.43;101393.25;687793;28;1169;-77
2022/04/14 00:13:39;;;;;;;10.40;6.77;;;;;;;16.98;60.40;101375.59;689892;28;1638;-77
2022/04/14 00:14:00;;;;;;;9.93;6.50;;;;;;;16.91;60.39;101372.91;690534;28;843;-76
2022/04/14 00:14:21;;;;;;;9.27;6.00;;;;;;;17.02;60.34;101376.53;692912;28;1264;-77
2022/04/14 00:14:41;;;;;;;9.02;5.95;;;;;;;17.02;60.21;101375.66;692668;28;1013;-77
2022/04/14 00:15:04;;;;;;;9.48;6.10;;;;;;;17.03;59.93;101377.41;693289;28;1048;-77
2022/04/14 00:15:25;;;;;;;11.60;6.60;;;;;;;17.06;59.95;101380.06;691120;28;1166;-76
2022/04/14 00:15:45;;;;;;;12.37;7.00;;;;;;;17.07;60.01;101381.84;690486;28;1133;-76
2022/04/14 00:16:06;;;;;;;12.00;6.93;;;;;;;17.13;59.86;101384.56;687710;28;929;-77
2022/04/14 00:16:26;;;;;;;9.97;6.53;;;;;;;17.09;59.85;101382.75;687726;28;1123;-77
2022/04/14 00:16:47;;;;;;;9.70;6.50;;;;;;;16.97;60.10;101383.50;687711;28;2006;-76
2022/04/14 00:17:07;;;;;;;9.02;6.20;;;;;;;16.69;60.66;101376.16;690775;28;1027;-77
2022/04/14 00:17:29;;;;;;;9.60;6.50;;;;;;;16.54;61.27;101382.13;693079;28;1132;-77
2022/04/14 00:17:49;;;;;;;9.40;6.40;;;;;;;16.40;61.69;101387.22;692506;28;1431;-76
2022/04/14 00:18:10;;;;;;;10.13;6.57;;;;;;;16.30;61.97;101385.31;695941;28;1090;-76
2022/04/14 00:18:48;;;;;;;9.38;6.03;;;;;;;16.33;62.35;101389.75;689631;28;1907;-76
2022/04/14 00:19:09;;;;;;;8.63;6.05;;;;;;;16.46;62.06;101390.81;692851;28;1561;-76
2022/04/14 00:19:30;;;;;;;8.80;6.27;;;;;;;16.50;61.80;101380.31;693604;28;1733;-76
2022/04/14 00:19:50;;;;;;;8.45;6.25;;;;;;;16.48;61.71;101378.53;691301;28;1234;-77
2022/04/14 00:20:11;;;;;;;8.30;6.13;;;;;;;16.57;61.70;101386.53;694405;28;1727;-76
2022/04/14 00:20:32;;;;;;;8.38;6.20;;;;;;;16.75;61.14;101379.72;687625;28;1398;-77
2022/04/14 00:20:52;;;;;;;10.07;6.47;;;;;;;16.79;61.00;101376.28;690127;28;1316;-76
2022/04/14 00:21:14;;;;;;;9.57;6.50;;;;;;;16.90;60.97;101386.94;690376;28;1049;-77
2022/04/14 00:21:34;;;;;;;8.88;6.53;;;;;;;16.93;60.49;101384.34;690112;28;1221;-76
2022/04/14 00:21:55;;;;;;;7.90;6.25;;;;;;;16.94;60.29;101378.19;692947;28;1073;-77
2022/04/14 00:22:16;;;;;;;7.50;6.17;;;;;;;16.93;60.20;101384.34;692613;28;1286;-77
2022/04/14 00:22:37;;;;;;;8.77;6.38;;;;;;;16.92;60.41;101379.94;686373;28;1473;-76
2022/04/14 00:22:59;;;;;;;9.93;6.97;;;;;;;16.97;60.29;101383.50;682377;29;1320;-76
2022/04/14 00:23:20;;;;;;;11.73;7.20;;;;;;;17.06;60.19;101387.97;689333;28;1159;-76
2022/04/14 00:23:41;;;;;;;11.33;7.07;;;;;;;17.06;60.10;101382.72;690302;28;1771;-76
2022/04/14 00:24:01;;;;;;;10.48;6.60;;;;;;;17.06;59.98;101380.06;690583;28;736;-76
2022/04/14 00:24:22;;;;;;;10.70;6.80;;;;;;;17.06;60.02;101382.72;690600;28;1248;-76
2022/04/14 00:24:42;;;;;;;11.50;7.00;;;;;;;17.06;59.71;101373.06;690451;28;1211;-76
2022/04/14 00:25:04;;;;;;;11.57;7.00;;;;;;;17.09;59.94;101375.72;692668;28;1053;-76
2022/04/14 00:25:24;;;;;;;10.30;6.97;;;;;;;17.13;59.86;101374.91;692237;28;1129;-76
2022/04/14 00:25:45;;;;;;;10.07;6.97;;;;;;;17.11;59.71;101378.38;694382;28;1512;-76
2022/04/14 00:26:06;;;;;;;10.93;7.00;;;;;;;17.17;59.74;101386.38;690465;28;1170;-77
2022/04/14 00:26:26;;;;;;;12.30;7.03;;;;;;;17.10;59.69;101371.34;689314;28;1320;-76
2022/04/14 00:26:47;;;;;;;13.07;6.80;;;;;;;16.98;59.82;101374.72;687712;28;1539;-76
2022/04/14 00:27:08;;;;;;;11.95;6.47;;;;;;;16.90;59.99;101376.41;692977;28;1439;-76
2022/04/14 00:27:28;;;;;;;10.20;6.20;;;;;;;16.88;60.25;101373.75;691842;28;1287;-76
2022/04/14 00:27:49;;;;;;;8.85;6.30;;;;;;;16.81;60.51;101371.91;685076;28;1070;-76
2022/04/14 00:28:10;;;;;;;8.80;6.10;;;;;;;16.79;60.56;101374.50;690454;28;1045;-76
2022/04/14 00:28:31;;;;;;;9.30;6.15;;;;;;;16.75;60.93;101374.44;694528;28;1106;-76
2022/04/14 00:28:51;;;;;;;9.10;6.03;;;;;;;16.70;60.95;101375.28;692371;28;1741;-76
2022/04/14 00:29:12;;;;;;;9.60;6.70;;;;;;;16.76;60.89;101376.22;695887;28;1047;-76
2022/04/14 00:29:32;;;;;;;10.33;6.90;;;;;;;16.81;60.74;101377.16;692669;28;1097;-76
2022/04/14 00:29:53;;;;;;;9.98;6.70;;;;;;;16.86;60.53;101370.22;687693;28;783;-76
2022/04/14 00:30:13;;;;;;;9.00;6.30;;;;;;;16.89;60.50;101372.88;687202;28;1285;-76
2022/04/14 00:30:34;;;;;;;8.90;6.27;;;;;;;16.89;60.32;101370.22;687624;28;1162;-76
2022/04/14 00:30:55;;;;;;;9.80;6.22;;;;;;;16.88;60.46;101363.19;690606;28;850;-77
2022/04/14 00:31:15;;;;;;;9.75;6.40;;;;;;;16.88;60.41;101368.47;690298;28;1158;-76
2022/04/14 00:31:37;;;;;;;11.13;6.23;;;;;;;16.97;60.39;101384.38;687660;28;1104;-76
2022/04/14 00:32:17;;;;;;;13.23;6.38;;;;;;;16.95;60.34;101370.31;692769;28;1389;-76
2022/04/14 00:32:38;;;;;;;10.30;6.20;;;;;;;16.92;60.31;101362.38;690458;28;1473;-76
2022/04/14 00:32:58;;;;;;;9.60;6.20;;;;;;;16.96;60.38;101372.06;690706;28;771;-76
2022/04/14 00:33:19;;;;;;;7.93;6.17;;;;;;;16.95;60.21;101367.66;693636;28;1378;-76
2022/04/14 00:33:39;;;;;;;8.05;6.40;;;;;;;16.96;60.24;101371.22;691507;28;1662;-76
2022/04/14 00:34:00;;;;;;;8.65;6.43;;;;;;;17.00;60.29;101378.25;687336;28;1211;-76
2022/04/14 00:34:20;;;;;;;8.93;6.50;;;;;;;17.02;60.20;101383.56;687514;28;1261;-76
2022/04/14 00:34:41;;;;;;;9.02;6.45;;;;;;;16.84;60.33;101366.69;690364;28;1504;-77
2022/04/14 00:35:01;;;;;;;8.93;6.20;;;;;;;16.79;60.66;101381.53;690462;28;939;-76
2022/04/14 00:35:22;;;;;;;9.25;6.05;;;;;;;16.80;60.66;101370.13;684806;28;1111;-76
2022/04/14 00:35:42;;;;;;;9.37;6.10;;;;;;;16.87;60.57;101371.97;684963;28;1676;-76
2022/04/14 00:36:04;;;;;;;7.97;6.10;;;;;;;16.90;60.47;101372.00;690371;28;1040;-76
2022/04/14 00:36:24;;;;;;;8.98;6.70;;;;;;;16.92;60.41;101378.19;692990;28;1246;-77
2022/04/14 00:36:45;;;;;;;10.93;7.15;;;;;;;16.96;60.43;101381.75;697568;28;1519;-76
2022/04/14 00:37:07;;;;;;;11.27;6.97;;;;;;;16.96;60.35;101377.34;693113;28;1023;-76
2022/04/14 00:37:27;;;;;;;10.02;6.40;;;;;;;16.98;60.28;101386.16;694068;28;1236;-76
2022/04/14 00:37:48;;;;;;;9.35;6.45;;;;;;;16.91;60.55;101376.41;690442;28;895;-77
2022/04/14 00:38:08;;;;;;;9.63;6.83;;;;;;;16.94;60.38;101376.44;685467;28;1280;-76
2022/04/14 00:38:29;;;;;;;9.13;6.80;;;;;;;16.91;60.40;101381.66;684631;28;1971;-76
2022/04/14 00:38:50;;;;;;;8.48;6.75;;;;;;;17.02;60.28;101396.75;686463;28;1719;-76
2022/04/14 00:39:10;;;;;;;8.60;7.03;;;;;;;16.99;60.18;101387.91;687743;28;927;-76
2022/04/14 00:39:31;;;;;;;9.00;6.93;;;;;;;16.97;60.21;101383.50;686289;28;1544;-76
2022/04/14 00:39:52;;;;;;;10.70;6.88;;;;;;;16.98;60.45;101385.28;692983;28;1193;-77
2022/04/14 00:40:13;;;;;;;10.82;6.70;;;;;;;16.94;60.54;101381.72;693230;28;1095;-76
2022/04/14 00:40:33;;;;;;;9.35;6.50;;;;;;;16.93;60.33;101377.31;691033;28;1208;-76
2022/04/14 00:40:55;;;;;;;9.00;6.23;;;;;;;16.79;60.36;101381.53;687796;28;812;-76
2022/04/14 00:41:17;;;;;;;10.93;7.00;;;;;;;16.71;60.76;101381.44;687772;28;985;-76
2022/04/14 00:41:37;;;;;;;11.15;6.93;;;;;;;16.66;61.00;101380.50;687511;28;1913;-77
2022/04/14 00:41:58;;;;;;;11.20;7.10;;;;;;;16.63;61.07;101378.72;689031;28;1765;-76
2022/04/14 00:42:19;;;;;;;12.23;6.65;;;;;;;16.62;61.15;101371.69;690286;28;1019;-76
2022/04/14 00:42:39;;;;;;;12.40;6.95;;;;;;;16.77;61.09;101389.44;690244;28;1293;-76
2022/04/14 00:43:00;;;;;;;10.60;6.60;;;;;;;16.77;60.75;101375.38;690407;28;1219;-76
2022/04/14 00:43:29;;;;;;;12.40;6.93;;;;;;;16.84;60.68;101383.38;685969;28;1466;-75
2022/04/14 00:43:53;;;;;;;16.17;7.60;;;;;;;16.91;60.64;101397.50;687799;28;824;-76
2022/04/14 00:44:14;;;;;;;14.85;7.80;;;;;;;16.91;60.50;101386.94;687559;28;1274;-76
2022/04/14 00:44:34;;;;;;;13.15;7.70;;;;;;;16.91;60.45;101389.56;694523;28;1558;-76
2022/04/14 00:44:55;;;;;;;12.17;7.60;;;;;;;16.96;60.41;101384.38;692934;28;811;-76
2022/04/14 00:45:15;;;;;;;13.57;7.80;;;;;;;16.94;60.48;101376.44;693238;28;977;-77
2022/04/14 00:45:35;;;;;;;12.63;7.57;;;;;;;16.95;60.38;101377.31;692460;28;1159;-76
2022/04/14 00:45:58;;;;;;;13.43;7.75;;;;;;;16.91;60.35;101373.75;695947;28;1141;-76
2022/04/14 00:46:19;;;;;;;11.60;7.20;;;;;;;16.70;60.84;101377.03;691692;28;885;-76
2022/04/14 00:46:39;;;;;;;10.60;7.13;;;;;;;16.89;60.74;101388.69;690380;28;1293;-76
2022/04/14 00:47:00;;;;;;;10.75;7.10;;;;;;;16.92;60.60;101386.09;690398;28;1144;-76
2022/04/14 00:47:21;;;;;;;14.10;7.90;;;;;;;16.93;60.55;101374.69;690510;28;1178;-76
2022/04/14 00:47:42;;;;;;;13.85;8.10;;;;;;;16.80;60.62;101380.69;690522;28;780;-76
2022/04/14 00:48:03;;;;;;;12.68;7.95;;;;;;;16.77;60.97;101375.38;688163;28;1081;-76
2022/04/14 00:48:24;;;;;;;11.30;7.60;;;;;;;16.80;61.02;101378.94;688152;28;1224;-76
2022/04/14 00:48:46;;;;;;;11.70;7.68;;;;;;;16.72;61.03;101383.22;693103;28;1419;-76
2022/04/14 00:49:25;;;;;;;12.32;8.20;;;;;;;16.70;61.34;101375.28;687752;28;831;-76
2022/04/14 00:49:45;;;;;;;11.40;8.27;;;;;;;16.70;61.37;101380.56;690270;28;1498;-76
2022/04/14 00:50:07;;;;;;;11.17;8.10;;;;;;;16.68;61.48;101371.75;690410;28;1132;-76
2022/04/14 00:50:28;;;;;;;11.10;8.05;;;;;;;16.68;61.56;101377.03;691729;28;1079;-76
2022/04/14 00:50:48;;;;;;;12.10;7.57;;;;;;;16.66;61.46;101373.47;687839;28;1736;-76
2022/04/14 00:51:09;;;;;;;12.47;7.17;;;;;;;16.74;61.15;101377.97;684964;28;1006;-76
2022/04/14 00:51:30;;;;;;;12.18;7.22;;;;;;;16.72;61.15;101376.19;688944;28;1191;-76
2022/04/14 00:51:50;;;;;;;10.10;7.10;;;;;;;16.74;61.34;101380.59;687746;28;1221;-77
2022/04/14 00:52:13;;;;;;;10.40;7.27;;;;;;;16.68;61.51;101374.41;693188;28;966;-76
2022/04/14 00:52:34;;;;;;;10.88;7.30;;;;;;;16.64;61.59;101361.13;690193;28;1328;-77
2022/04/14 00:52:55;;;;;;;12.80;7.85;;;;;;;16.67;61.49;101375.25;687784;28;892;-76
2022/04/14 00:53:15;;;;;;;11.48;7.63;;;;;;;16.71;61.52;101384.06;688305;28;1064;-76
2022/04/14 00:53:37;;;;;;;11.98;7.80;;;;;;;16.64;61.43;101369.94;688059;28;1807;-76
2022/04/14 00:53:58;;;;;;;11.85;7.50;;;;;;;16.74;61.48;101380.59;686751;28;1489;-76
2022/04/14 00:54:19;;;;;;;12.20;7.70;;;;;;;16.69;61.46;101368.25;685459;28;1040;-76
2022/04/14 00:54:39;;;;;;;12.43;7.88;;;;;;;16.65;61.54;101362.94;682286;28;1337;-75
2022/04/14 00:55:00;;;;;;;10.83;7.67;;;;;;;16.63;61.55;101373.44;684658;28;1018;-76
2022/04/14 00:55:20;;;;;;;11.40;7.77;;;;;;;16.63;61.66;101372.56;684843;28;1171;-76
2022/04/14 00:55:41;;;;;;;12.25;7.93;;;;;;;16.57;61.71;101368.09;690378;28;1142;-76
2022/04/14 00:56:01;;;;;;;13.40;8.30;;;;;;;16.58;61.81;101372.50;690320;28;1467;-76
2022/04/14 00:56:22;;;;;;;12.57;8.10;;;;;;;16.57;62.01;101369.00;687925;28;1178;-77
2022/04/14 00:56:42;;;;;;;12.43;8.00;;;;;;;16.61;61.89;101374.28;690374;28;1273;-76
2022/04/14 00:57:03;;;;;;;13.98;8.20;;;;;;;16.74;61.64;101370.94;686164;28;1655;-76
2022/04/14 00:57:24;;;;;;;14.55;8.30;;;;;;;16.77;61.39;101363.06;690315;28;1094;-76
2022/04/14 00:57:45;;;;;;;14.95;8.57;;;;;;;16.81;61.28;101361.34;690361;28;1315;-76
2022/04/14 00:58:14;;;;;;;12.07;8.52;;;;;;;16.86;61.22;101371.06;690540;28;792;-76
2022/04/14 00:58:36;;;;;;;11.70;8.15;;;;;;;16.89;61.12;101372.88;690995;28;1981;-76
2022/04/14 00:58:56;;;;;;;10.18;7.80;;;;;;;16.90;61.09;101371.13;689884;28;1505;-76
2022/04/14 00:59:17;;;;;;;10.70;7.93;;;;;;;16.77;61.16;101365.69;687549;28;1116;-76
2022/04/14 00:59:38;;;;;;;13.60;8.60;;;;;;;16.84;61.21;101375.44;689403;28;1170;-76
2022/04/14 00:59:59;;;;;;;15.13;8.43;;;;;;;16.84;61.07;101364.03;687763;28;1033;-76
2022/04/14 01:00:19;;;;;;;14.98;8.15;;;;;;;16.85;61.07;101368.44;687457;28;1027;-78
2022/04/14 01:00:40;;;;;;;12.47;7.77;;;;;;;16.87;60.97;101366.69;688036;28;1552;-76
2022/04/14 01:01:07;;;;;;;11.35;7.80;;;;;;;16.83;61.19;101363.16;687151;28;2505;-76
2022/04/14 01:01:28;;;;;;;12.38;7.90;;;;;;;16.90;61.06;101371.13;688575;28;1854;-76
2022/04/14 01:01:48;;;;;;;13.00;7.93;;;;;;;16.81;61.08;101358.72;692927;28;2389;-76
2022/04/14 01:02:09;;;;;;;12.97;8.03;;;;;;;16.85;61.01;101363.16;692817;28;1250;-76
2022/04/14 01:02:29;;;;;;;11.13;8.07;;;;;;;16.82;61.02;101361.38;689761;28;1191;-76
2022/04/14 01:02:50;;;;;;;11.43;8.10;;;;;;;16.77;61.07;101356.94;682175;29;1249;-76
2022/04/14 01:03:10;;;;;;;12.97;8.30;;;;;;;16.82;61.27;101369.28;687667;28;1272;-75
2022/04/14 01:03:32;;;;;;;14.50;8.20;;;;;;;16.82;61.27;101357.84;690680;28;1197;-76
2022/04/14 01:03:53;;;;;;;12.38;7.95;;;;;;;16.78;61.19;101356.06;692110;28;1002;-76
2022/04/14 01:04:15;;;;;;;11.70;7.63;;;;;;;16.82;61.04;101363.13;684878;28;1204;-76
2022/04/14 01:04:37;;;;;;;11.27;7.70;;;;;;;16.81;61.01;101364.00;689702;28;1155;-76
2022/04/14 01:04:59;;;;;;;11.15;7.65;;;;;;;16.78;61.30;101356.06;690492;28;847;-76
2022/04/14 01:05:21;;;;;;;9.98;7.50;;;;;;;16.76;61.33;101358.66;690175;28;1390;-76
2022/04/14 01:05:42;;;;;;;10.10;7.40;;;;;;;16.76;61.30;101357.78;687514;28;2068;-76
2022/04/14 01:06:03;;;;;;;12.05;7.50;;;;;;;16.62;61.54;101355.88;682267;29;1825;-76
2022/04/14 01:06:24;;;;;;;14.00;8.07;;;;;;;16.43;62.07;101360.03;688142;28;1247;-76
2022/04/14 01:06:45;;;;;;;14.10;8.38;;;;;;;16.63;62.01;101362.91;690415;28;1367;-76
2022/04/14 01:07:07;;;;;;;13.48;8.23;;;;;;;16.73;61.75;101363.91;691052;28;1598;-76
2022/04/14 01:07:29;;;;;;;13.30;8.10;;;;;;;16.61;61.65;101364.66;692851;28;1067;-76
2022/04/14 01:07:59;;;;;;;15.05;8.57;;;;;;;16.40;62.48;101368.78;692646;28;1206;-76
2022/04/14 01:08:20;;;;;;;13.93;8.90;;;;;;;16.34;62.54;101360.78;693900;28;1541;-76
2022/04/14 01:09:16;;;;;;;13.40;8.70;;;;;;;16.54;62.43;101365.44;690876;28;1225;-76
2022/04/14 01:09:26;;;;;;;11.82;8.55;;;;;;;16.63;62.07;101362.91;690077;28;1172;-76
2022/04/14 01:09:47;;;;;;;12.13;8.63;;;;;;;16.68;61.89;101371.75;687187;28;1379;-76
2022/04/14 01:10:08;;;;;;;11.93;8.60;;;;;;;16.62;62.00;101360.25;688742;28;996;-76
2022/04/14 01:10:29;;;;;;;12.05;8.32;;;;;;;16.66;61.83;101365.56;693135;28;1121;-75
2022/04/14 01:10:50;;;;;;;11.40;8.30;;;;;;;16.68;61.86;101366.50;690567;28;775;-76
2022/04/14 01:11:26;;;;;;;12.07;8.40;;;;;;;16.67;61.91;101362.06;690347;28;955;-76
2022/04/14 01:11:47;;;;;;;13.07;8.13;;;;;;;16.69;61.82;101362.09;690258;28;858;-76
2022/04/14 01:12:09;;;;;;;14.45;8.48;;;;;;;16.71;61.70;101363.88;687725;28;1023;-76
2022/04/14 01:12:33;;;;;;;12.32;7.88;;;;;;;16.75;61.71;101371.81;686028;28;1548;-76
2022/04/14 01:12:54;;;;;;;12.27;7.47;;;;;;;16.72;61.98;101356.88;690366;28;1361;-76
2022/04/14 01:13:15;;;;;;;12.05;7.40;;;;;;;16.76;61.82;101363.94;690424;28;1011;-77
2022/04/14 01:13:36;;;;;;;12.98;7.90;;;;;;;16.70;61.77;101351.59;690857;28;1569;-76
2022/04/14 01:13:57;;;;;;;12.50;8.03;;;;;;;16.49;61.98;101359.22;692973;28;1745;-76
2022/04/14 01:14:29;;;;;;;12.75;8.10;;;;;;;16.26;62.61;101350.16;687876;28;1073;-76
2022/04/14 01:14:49;;;;;;;11.93;8.30;;;;;;;16.24;63.11;101370.28;688381;28;1984;-76
2022/04/14 01:15:11;;;;;;;10.25;7.90;;;;;;;16.16;63.29;101354.38;690421;28;989;-75
2022/04/14 01:15:32;;;;;;;12.05;8.57;;;;;;;16.08;63.56;101356.00;692891;28;1100;-76
2022/04/14 01:15:59;;;;;;;12.38;8.30;;;;;;;15.98;64.20;101364.63;691381;28;1531;-76
2022/04/14 01:16:20;;;;;;;11.77;8.15;;;;;;;15.86;64.39;101347.78;693094;28;1218;-76
2022/04/14 01:16:40;;;;;;;11.50;8.07;;;;;;;15.94;64.40;101360.19;692893;28;1574;-75
2022/04/14 01:17:05;;;;;;;13.80;8.23;;;;;;;15.81;64.61;101348.56;692358;28;1310;-76
2022/04/14 01:17:25;;;;;;;13.77;8.02;;;;;;;15.78;64.88;101348.53;687601;28;1096;-76
2022/04/14 01:17:46;;;;;;;13.65;7.88;;;;;;;15.78;64.86;101359.94;686899;28;1553;-76
2022/04/14 01:18:07;;;;;;;11.68;7.93;;;;;;;15.89;64.66;101358.38;684846;28;1220;-76
2022/04/14 01:18:27;;;;;;;14.05;8.77;;;;;;;15.93;64.61;101353.16;685828;28;2043;-76
2022/04/14 01:18:49;;;;;;;12.73;8.68;;;;;;;16.00;64.53;101362.91;685148;28;1620;-76
2022/04/14 01:19:16;;;;;;;12.30;8.40;;;;;;;15.97;64.40;101352.34;684984;28;1205;-76
2022/04/14 01:19:38;;;;;;;11.77;8.18;;;;;;;15.93;64.40;101345.25;684851;28;1395;-76
2022/04/14 01:19:59;;;;;;;13.52;8.38;;;;;;;15.98;64.25;101346.22;690001;28;1543;-76
2022/04/14 01:20:19;;;;;;;15.10;9.00;;;;;;;15.97;64.35;101349.72;691384;28;1849;-76
2022/04/14 01:20:42;;;;;;;12.77;8.47;;;;;;;16.05;64.42;101361.25;693073;28;1078;-76
2022/04/14 01:21:02;;;;;;;12.05;8.55;;;;;;;16.00;64.21;101353.25;687538;28;1073;-76
2022/04/14 01:21:25;;;;;;;11.03;8.10;;;;;;;16.12;64.25;101349.03;687837;28;1258;-76
2022/04/14 01:22:15;;;;;;;12.48;8.43;;;;;;;16.07;64.39;101354.25;684752;28;1851;-76
2022/04/14 01:22:50;;;;;;;13.50;8.50;;;;;;;15.86;64.66;101350.41;687414;28;1105;-75
2022/04/14 01:23:12;;;;;;;12.50;9.18;;;;;;;15.75;65.06;101344.13;690156;28;1457;-76
2022/04/14 01:23:40;;;;;;;14.15;9.15;;;;;;;15.71;65.12;101348.44;690989;28;1522;-76
2022/04/14 01:24:02;;;;;;;15.15;8.65;;;;;;;15.78;65.35;101344.16;693038;28;970;-76
2022/04/14 01:24:23;;;;;;;15.95;8.35;;;;;;;16.00;64.79;101349.75;689923;28;1212;-76
2022/04/14 01:24:44;;;;;;;14.30;7.80;;;;;;;16.22;64.34;101350.06;692308;28;1397;-76
2022/04/14 01:25:05;;;;;;;12.20;8.00;;;;;;;16.24;63.95;101338.69;693678;28;1689;-76
2022/04/14 01:25:26;;;;;;;15.18;8.82;;;;;;;16.30;63.78;101353.72;687568;28;1073;-76
2022/04/14 01:25:47;;;;;;;15.90;9.15;;;;;;;16.24;63.81;101341.31;690372;28;1666;-76
2022/04/14 01:26:09;;;;;;;17.02;9.10;;;;;;;15.99;64.09;101342.72;687555;28;1446;-76
2022/04/14 01:26:45;;;;;;;13.43;8.10;;;;;;;15.86;64.61;101349.53;693237;28;1142;-76
2022/04/14 01:27:05;;;;;;;12.07;8.23;;;;;;;15.87;64.72;101344.28;692462;28;937;-76
2022/04/14 01:27:28;;;;;;;12.30;8.18;;;;;;;15.99;64.33;101356.75;690206;28;1421;-76
2022/04/14 01:27:50;;;;;;;11.70;8.20;;;;;;;15.81;64.82;101343.31;684198;28;1644;-76
2022/04/14 01:28:10;;;;;;;12.50;8.27;;;;;;;15.76;65.25;101345.88;684876;28;1123;-76
2022/04/14 01:28:31;;;;;;;14.70;8.83;;;;;;;15.70;65.41;101345.78;684426;28;1639;-76
2022/04/14 01:28:52;;;;;;;14.77;9.02;;;;;;;15.70;65.49;101351.94;687701;28;732;-76
2022/04/14 01:29:21;;;;;;;12.57;8.33;;;;;;;15.64;65.52;101346.56;687677;28;969;-76
2022/04/14 01:29:41;;;;;;;9.52;7.43;;;;;;;15.60;65.57;101345.63;684153;28;1445;-76
2022/04/14 01:30:02;;;;;;;12.87;7.97;;;;;;;15.63;65.79;101345.66;684924;28;1102;-76
2022/04/14 01:30:23;;;;;;;15.05;7.97;;;;;;;15.65;65.83;101350.97;687222;28;1149;-76
2022/04/14 01:30:44;;;;;;;15.25;8.10;;;;;;;15.60;65.90;101350.91;692927;28;1697;-77
2022/04/14 01:31:05;;;;;;;12.60;7.75;;;;;;;15.59;66.09;101343.88;695743;28;1213;-76
2022/04/14 01:31:25;;;;;;;11.23;7.95;;;;;;;15.61;65.88;101352.66;694034;28;1012;-76
2022/04/14 01:31:46;;;;;;;10.20;7.53;;;;;;;15.59;65.97;101346.50;683029;28;1292;-76
2022/04/14 01:32:07;;;;;;;10.95;7.68;;;;;;;15.56;65.88;101342.94;685055;28;937;-76
2022/04/14 01:32:28;;;;;;;11.93;7.45;;;;;;;15.60;65.99;101350.91;687460;28;1248;-76
2022/04/14 01:32:49;;;;;;;13.10;7.80;;;;;;;15.62;66.17;101357.06;687259;28;1054;-76
2022/04/14 01:33:09;;;;;;;12.40;7.50;;;;;;;15.59;66.08;101351.75;687490;28;1480;-76
2022/04/14 01:33:30;;;;;;;12.80;7.30;;;;;;;15.60;66.17;101355.25;692848;28;1511;-76
2022/04/14 01:33:50;;;;;;;12.35;7.35;;;;;;;15.60;66.14;101356.16;693204;28;732;-76
2022/04/14 01:34:11;;;;;;;12.98;7.50;;;;;;;15.56;66.28;101351.69;687605;28;1311;-76
2022/04/14 01:34:32;;;;;;;13.83;7.70;;;;;;;15.56;66.10;101340.28;691904;28;1179;-76
2022/04/14 01:34:52;;;;;;;13.57;7.70;;;;;;;15.54;66.23;101350.78;685033;28;1882;-76
2022/04/14 01:35:13;;;;;;;11.50;7.57;;;;;;;15.52;65.98;101344.63;690244;28;1130;-76
2022/04/14 01:35:33;;;;;;;12.00;7.97;;;;;;;15.52;66.35;101339.38;694046;28;1249;-76
2022/04/14 01:35:54;;;;;;;12.83;8.10;;;;;;;15.47;66.36;101355.06;693124;28;1285;-76
2022/04/14 01:36:16;;;;;;;13.10;8.23;;;;;;;15.43;66.46;101347.09;695824;28;1092;-76
2022/04/14 01:36:37;;;;;;;11.88;7.93;;;;;;;15.41;66.75;101351.44;689513;28;1122;-76
2022/04/14 01:37:01;;;;;;;12.88;7.95;;;;;;;15.41;66.74;101359.31;687535;28;1418;-76
2022/04/14 01:37:22;;;;;;;13.73;8.07;;;;;;;15.41;66.66;101357.59;684701;28;1970;-76
2022/04/14 01:37:42;;;;;;;12.50;7.97;;;;;;;15.35;66.93;101349.59;685002;28;1534;-76
2022/04/14 01:38:03;;;;;;;11.20;7.38;;;;;;;15.38;66.81;101351.38;690327;28;1253;-76
2022/04/14 01:38:23;;;;;;;11.32;7.50;;;;;;;15.38;66.80;101354.00;690522;28;1908;-76
2022/04/14 01:38:44;;;;;;;11.80;7.47;;;;;;;15.35;67.08;101350.47;690929;28;1768;-76
2022/04/14 01:39:18;;;;;;;11.32;7.65;;;;;;;15.37;67.04;101354.88;684931;28;1377;-76
2022/04/14 01:39:39;;;;;;;13.65;7.80;;;;;;;15.34;67.17;101350.44;689347;28;1104;-76
2022/04/14 01:40:00;;;;;;;13.70;7.57;;;;;;;15.30;67.00;101344.25;687511;28;1368;-76
2022/04/14 01:40:21;;;;;;;12.20;7.20;;;;;;;15.39;66.93;101361.03;687415;28;1089;-76
2022/04/14 01:40:42;;;;;;;11.07;7.20;;;;;;;15.39;66.89;101361.94;690392;28;814;-76
2022/04/14 01:41:02;;;;;;;10.45;7.07;;;;;;;15.34;66.90;101348.72;687663;28;1002;-76
2022/04/14 01:41:23;;;;;;;11.77;7.50;;;;;;;15.37;67.20;101352.25;692931;28;1431;-76
2022/04/14 01:42:00;;;;;;;11.13;7.63;;;;;;;15.48;66.88;101356.84;693085;28;834;-76
2022/04/14 01:42:21;;;;;;;10.80;7.43;;;;;;;15.44;66.74;101360.25;690135;28;1170;-76
2022/04/14 01:42:42;;;;;;;10.90;7.37;;;;;;;15.44;66.75;101355.00;690229;28;1804;-76
2022/04/14 01:43:02;;;;;;;11.48;7.18;;;;;;;15.51;66.75;101356.00;691872;28;1654;-75
2022/04/14 01:43:23;;;;;;;11.03;7.70;;;;;;;15.54;66.71;101356.03;690702;28;1524;-76
2022/04/14 01:43:43;;;;;;;12.88;8.15;;;;;;;15.50;66.61;101359.50;690310;28;1162;-76